sensor_id;sensor_type;location;lat;lon;timestamp;pressure;altitude;pressure_sealevel;temperature;humidity
61682;BME280;47577;43.610;25.010;2023-06-14T00:00:19;100135.94;;;19.17;80.19
61682;BME280;47577;43.610;25.010;2023-06-14T00:02:46;100138.88;;;19.14;79.98
61682;BME280;47577;43.610;25.010;2023-06-14T00:05:12;100140.13;;;18.97;81.52
61682;BME280;47577;43.610;25.010;2023-06-14T00:07:39;100141.19;;;18.94;81.75
61682;BME280;47577;43.610;25.010;2023-06-14T00:10:09;100145.94;;;18.91;82.17
61682;BME280;47577;43.610;25.010;2023-06-14T00:12:35;100131.97;;;18.86;82.06
61682;BME280;47577;43.610;25.010;2023-06-14T00:15:02;100130.09;;;18.73;82.04
61682;BME280;47577;43.610;25.010;2023-06-14T00:17:28;100137.88;;;18.78;81.62
61682;BME280;47577;43.610;25.010;2023-06-14T00:19:59;100131.50;;;18.79;81.83
61682;BME280;47577;43.610;25.010;2023-06-14T00:22:25;100119.13;;;18.76;82.02
61682;BME280;47577;43.610;25.010;2023-06-14T00:24:51;100127.72;;;18.81;81.62
61682;BME280;47577;43.610;25.010;2023-06-14T00:27:17;100129.25;;;18.86;81.99
61682;BME280;47577;43.610;25.010;2023-06-14T00:29:43;100129.69;;;18.92;80.80
61682;BME280;47577;43.610;25.010;2023-06-14T00:32:09;100128.06;;;18.90;81.18
61682;BME280;47577;43.610;25.010;2023-06-14T00:34:34;100123.00;;;18.85;82.33
61682;BME280;47577;43.610;25.010;2023-06-14T00:37:00;100124.50;;;18.76;82.68
61682;BME280;47577;43.610;25.010;2023-06-14T00:39:27;100116.84;;;18.83;81.05
61682;BME280;47577;43.610;25.010;2023-06-14T00:41:52;100115.34;;;18.79;81.07
61682;BME280;47577;43.610;25.010;2023-06-14T00:44:18;100105.75;;;18.88;81.54
61682;BME280;47577;43.610;25.010;2023-06-14T00:46:47;100094.38;;;18.84;81.08
61682;BME280;47577;43.610;25.010;2023-06-14T00:49:17;100100.28;;;18.76;82.55
61682;BME280;47577;43.610;25.010;2023-06-14T00:51:45;100102.44;;;18.84;81.60
61682;BME280;47577;43.610;25.010;2023-06-14T00:54:10;100101.75;;;18.80;81.71
61682;BME280;47577;43.610;25.010;2023-06-14T00:56:36;100099.19;;;18.79;82.69
61682;BME280;47577;43.610;25.010;2023-06-14T00:59:02;100094.88;;;18.76;82.45
61682;BME280;47577;43.610;25.010;2023-06-14T01:01:29;100100.72;;;18.70;82.87
61682;BME280;47577;43.610;25.010;2023-06-14T01:03:58;100107.31;;;18.66;81.58
61682;BME280;47577;43.610;25.010;2023-06-14T01:09:09;100108.59;;;18.60;83.21
61682;BME280;47577;43.610;25.010;2023-06-14T01:14:53;100110.75;;;18.55;82.38
61682;BME280;47577;43.610;25.010;2023-06-14T01:17:20;100105.38;;;18.55;82.12
61682;BME280;47577;43.610;25.010;2023-06-14T01:19:47;100114.41;;;18.54;82.01
61682;BME280;47577;43.610;25.010;2023-06-14T01:22:12;100118.19;;;18.52;83.08
61682;BME280;47577;43.610;25.010;2023-06-14T01:24:38;100110.22;;;18.50;83.72
61682;BME280;47577;43.610;25.010;2023-06-14T01:27:05;100118.63;;;18.45;82.38
61682;BME280;47577;43.610;25.010;2023-06-14T01:29:33;100115.31;;;18.42;83.96
61682;BME280;47577;43.610;25.010;2023-06-14T01:32:02;100120.03;;;18.38;83.18
61682;BME280;47577;43.610;25.010;2023-06-14T01:34:27;100105.28;;;18.31;83.15
61682;BME280;47577;43.610;25.010;2023-06-14T01:36:53;100117.56;;;18.35;83.42
61682;BME280;47577;43.610;25.010;2023-06-14T01:39:23;100106.72;;;18.24;83.22
61682;BME280;47577;43.610;25.010;2023-06-14T01:41:49;100105.41;;;18.17;83.74
61682;BME280;47577;43.610;25.010;2023-06-14T01:44:17;100106.72;;;18.11;83.95
61682;BME280;47577;43.610;25.010;2023-06-14T01:46:44;100109.16;;;18.27;83.33
61682;BME280;47577;43.610;25.010;2023-06-14T01:49:11;100112.84;;;18.26;83.26
61682;BME280;47577;43.610;25.010;2023-06-14T01:51:37;100112.72;;;18.27;83.95
61682;BME280;47577;43.610;25.010;2023-06-14T01:54:02;100101.66;;;18.19;84.07
61682;BME280;47577;43.610;25.010;2023-06-14T01:56:28;100119.38;;;18.22;83.17
61682;BME280;47577;43.610;25.010;2023-06-14T01:58:54;100114.22;;;18.06;83.86
61682;BME280;47577;43.610;25.010;2023-06-14T02:01:20;100117.34;;;18.00;85.19
61682;BME280;47577;43.610;25.010;2023-06-14T02:03:47;100113.56;;;17.89;85.84
61682;BME280;47577;43.610;25.010;2023-06-14T02:06:14;100118.63;;;17.94;85.81
61682;BME280;47577;43.610;25.010;2023-06-14T02:08:41;100118.09;;;18.02;85.17
61682;BME280;47577;43.610;25.010;2023-06-14T02:11:08;100108.19;;;18.02;85.07
61682;BME280;47577;43.610;25.010;2023-06-14T02:13:33;100118.00;;;18.03;84.57
61682;BME280;47577;43.610;25.010;2023-06-14T02:16:00;100110.78;;;18.04;85.27
61682;BME280;47577;43.610;25.010;2023-06-14T02:18:26;100118.09;;;18.02;84.61
61682;BME280;47577;43.610;25.010;2023-06-14T02:20:52;100120.34;;;17.95;84.69
61682;BME280;47577;43.610;25.010;2023-06-14T02:23:18;100125.44;;;18.00;85.60
61682;BME280;47577;43.610;25.010;2023-06-14T02:25:44;100126.06;;;18.03;84.95
61682;BME280;47577;43.610;25.010;2023-06-14T02:28:11;100137.56;;;18.05;85.34
61682;BME280;47577;43.610;25.010;2023-06-14T02:30:36;100136.19;;;18.00;85.40
61682;BME280;47577;43.610;25.010;2023-06-14T02:33:02;100139.50;;;18.03;87.00
61682;BME280;47577;43.610;25.010;2023-06-14T02:35:29;100134.78;;;18.07;85.81
61682;BME280;47577;43.610;25.010;2023-06-14T02:37:55;100138.22;;;18.09;86.79
61682;BME280;47577;43.610;25.010;2023-06-14T02:40:22;100136.19;;;18.13;84.63
61682;BME280;47577;43.610;25.010;2023-06-14T02:42:47;100127.56;;;18.07;85.29
61682;BME280;47577;43.610;25.010;2023-06-14T02:45:13;100134.25;;;18.15;85.76
61682;BME280;47577;43.610;25.010;2023-06-14T02:47:42;100141.91;;;18.21;85.29
61682;BME280;47577;43.610;25.010;2023-06-14T02:50:08;100152.44;;;18.24;84.31
61682;BME280;47577;43.610;25.010;2023-06-14T02:52:34;100143.28;;;18.26;84.53
61682;BME280;47577;43.610;25.010;2023-06-14T02:54:59;100145.88;;;18.28;84.95
61682;BME280;47577;43.610;25.010;2023-06-14T02:57:25;100147.28;;;18.34;83.68
61682;BME280;47577;43.610;25.010;2023-06-14T02:59:51;100158.78;;;18.36;84.80
61682;BME280;47577;43.610;25.010;2023-06-14T03:02:21;100166.75;;;18.37;85.56
61682;BME280;47577;43.610;25.010;2023-06-14T03:04:49;100148.25;;;18.33;84.42
61682;BME280;47577;43.610;25.010;2023-06-14T03:07:15;100172.88;;;18.39;84.79
61682;BME280;47577;43.610;25.010;2023-06-14T03:09:45;100175.78;;;18.36;85.08
61682;BME280;47577;43.610;25.010;2023-06-14T03:12:11;100169.75;;;18.20;85.85
61682;BME280;47577;43.610;25.010;2023-06-14T03:14:36;100181.06;;;18.38;85.61
61682;BME280;47577;43.610;25.010;2023-06-14T03:17:02;100180.88;;;18.41;84.28
61682;BME280;47577;43.610;25.010;2023-06-14T03:19:30;100174.94;;;18.49;84.13
61682;BME280;47577;43.610;25.010;2023-06-14T03:21:55;100175.16;;;18.45;85.06
61682;BME280;47577;43.610;25.010;2023-06-14T03:24:25;100172.69;;;18.42;85.86
61682;BME280;47577;43.610;25.010;2023-06-14T03:26:54;100185.59;;;18.50;85.62
61682;BME280;47577;43.610;25.010;2023-06-14T03:29:20;100179.78;;;18.56;84.54
61682;BME280;47577;43.610;25.010;2023-06-14T03:31:57;100187.19;;;18.40;86.08
61682;BME280;47577;43.610;25.010;2023-06-14T03:34:23;100176.69;;;18.37;86.15
61682;BME280;47577;43.610;25.010;2023-06-14T03:36:49;100187.97;;;18.42;85.34
61682;BME280;47577;43.610;25.010;2023-06-14T03:39:15;100183.97;;;18.48;84.62
61682;BME280;47577;43.610;25.010;2023-06-14T03:41:40;100171.94;;;18.53;84.47
61682;BME280;47577;43.610;25.010;2023-06-14T03:44:06;100177.75;;;18.60;84.50
61682;BME280;47577;43.610;25.010;2023-06-14T03:46:31;100191.09;;;18.74;84.91
61682;BME280;47577;43.610;25.010;2023-06-14T03:48:57;100196.78;;;18.82;84.27
61682;BME280;47577;43.610;25.010;2023-06-14T03:51:23;100182.81;;;18.90;83.19
61682;BME280;47577;43.610;25.010;2023-06-14T03:53:50;100188.81;;;19.07;82.30
61682;BME280;47577;43.610;25.010;2023-06-14T03:56:16;100188.09;;;19.16;83.42
61682;BME280;47577;43.610;25.010;2023-06-14T03:58:41;100185.59;;;19.26;82.89
61682;BME280;47577;43.610;25.010;2023-06-14T04:01:07;100193.56;;;19.27;81.32
61682;BME280;47577;43.610;25.010;2023-06-14T04:03:33;100189.19;;;19.26;82.13
61682;BME280;47577;43.610;25.010;2023-06-14T04:05:58;100203.69;;;19.36;82.54
61682;BME280;47577;43.610;25.010;2023-06-14T04:08:25;100200.47;;;19.31;82.31
61682;BME280;47577;43.610;25.010;2023-06-14T04:10:51;100199.38;;;19.34;82.00
61682;BME280;47577;43.610;25.010;2023-06-14T04:13:16;100197.16;;;19.28;82.08
61682;BME280;47577;43.610;25.010;2023-06-14T04:15:43;100198.00;;;19.28;81.31
61682;BME280;47577;43.610;25.010;2023-06-14T04:18:11;100204.03;;;19.32;82.88
61682;BME280;47577;43.610;25.010;2023-06-14T04:20:36;100198.97;;;19.27;82.07
61682;BME280;47577;43.610;25.010;2023-06-14T04:23:12;100198.75;;;19.30;82.50
61682;BME280;47577;43.610;25.010;2023-06-14T04:25:38;100196.94;;;19.31;81.13
61682;BME280;47577;43.610;25.010;2023-06-14T04:28:04;100204.66;;;19.35;81.45
61682;BME280;47577;43.610;25.010;2023-06-14T04:30:30;100207.44;;;19.34;82.21
61682;BME280;47577;43.610;25.010;2023-06-14T04:32:57;100203.69;;;19.36;81.79
61682;BME280;47577;43.610;25.010;2023-06-14T04:35:22;100200.53;;;19.43;81.92
61682;BME280;47577;43.610;25.010;2023-06-14T04:37:52;100202.38;;;19.42;81.08
61682;BME280;47577;43.610;25.010;2023-06-14T04:40:18;100200.94;;;19.49;81.45
61682;BME280;47577;43.610;25.010;2023-06-14T04:42:44;100208.28;;;19.47;80.70
61682;BME280;47577;43.610;25.010;2023-06-14T04:45:11;100217.00;;;19.51;82.07
61682;BME280;47577;43.610;25.010;2023-06-14T04:47:38;100224.34;;;19.49;81.70
61682;BME280;47577;43.610;25.010;2023-06-14T05:07:00;100238.84;;;19.96;79.09
61682;BME280;47577;43.610;25.010;2023-06-14T05:09:27;100234.38;;;19.71;79.19
61682;BME280;47577;43.610;25.010;2023-06-14T05:11:53;100235.69;;;19.41;80.84
61682;BME280;47577;43.610;25.010;2023-06-14T05:14:19;100238.91;;;19.46;80.40
61682;BME280;47577;43.610;25.010;2023-06-14T05:16:45;100236.84;;;19.50;80.33
61682;BME280;47577;43.610;25.010;2023-06-14T05:19:11;100251.63;;;19.57;81.13
61682;BME280;47577;43.610;25.010;2023-06-14T05:21:37;100251.22;;;19.50;80.25
61682;BME280;47577;43.610;25.010;2023-06-14T05:24:02;100252.78;;;19.53;80.10
61682;BME280;47577;43.610;25.010;2023-06-14T05:26:28;100250.09;;;19.53;81.05
61682;BME280;47577;43.610;25.010;2023-06-14T05:28:57;100250.50;;;19.60;79.58
61682;BME280;47577;43.610;25.010;2023-06-14T05:31:24;100260.00;;;19.65;79.41
61682;BME280;47577;43.610;25.010;2023-06-14T05:33:51;100257.94;;;19.69;80.43
61682;BME280;47577;43.610;25.010;2023-06-14T05:36:17;100251.34;;;19.73;80.29
61682;BME280;47577;43.610;25.010;2023-06-14T05:38:43;100257.78;;;19.83;79.75
61682;BME280;47577;43.610;25.010;2023-06-14T05:41:09;100255.72;;;19.87;78.67
61682;BME280;47577;43.610;25.010;2023-06-14T05:43:34;100242.34;;;19.85;78.57
61682;BME280;47577;43.610;25.010;2023-06-14T05:46:00;100249.25;;;19.89;79.58
61682;BME280;47577;43.610;25.010;2023-06-14T05:48:26;100243.31;;;19.23;79.80
61682;BME280;47577;43.610;25.010;2023-06-14T05:50:51;100257.97;;;19.56;81.50
61682;BME280;47577;43.610;25.010;2023-06-14T05:53:17;100251.00;;;19.53;79.38
61682;BME280;47577;43.610;25.010;2023-06-14T05:55:43;100252.50;;;19.82;80.34
61682;BME280;47577;43.610;25.010;2023-06-14T05:58:08;100254.81;;;19.99;78.98
61682;BME280;47577;43.610;25.010;2023-06-14T06:00:36;100245.03;;;20.09;77.99
61682;BME280;47577;43.610;25.010;2023-06-14T06:03:01;100246.34;;;20.28;77.36
61682;BME280;47577;43.610;25.010;2023-06-14T06:05:27;100258.91;;;20.52;77.87
61682;BME280;47577;43.610;25.010;2023-06-14T06:07:53;100243.81;;;20.49;77.02
61682;BME280;47577;43.610;25.010;2023-06-14T06:10:18;100245.41;;;20.63;76.77
61682;BME280;47577;43.610;25.010;2023-06-14T06:12:44;100253.81;;;20.71;76.07
61682;BME280;47577;43.610;25.010;2023-06-14T06:15:10;100258.97;;;20.74;75.24
61682;BME280;47577;43.610;25.010;2023-06-14T06:17:39;100251.47;;;20.89;76.03
61682;BME280;47577;43.610;25.010;2023-06-14T06:20:06;100243.25;;;21.02;75.90
61682;BME280;47577;43.610;25.010;2023-06-14T06:22:36;100259.47;;;21.25;75.72
61682;BME280;47577;43.610;25.010;2023-06-14T06:25:02;100255.56;;;21.17;75.82
61682;BME280;47577;43.610;25.010;2023-06-14T06:27:28;100260.34;;;21.25;74.19
61682;BME280;47577;43.610;25.010;2023-06-14T06:29:53;100254.41;;;21.43;74.04
61682;BME280;47577;43.610;25.010;2023-06-14T06:32:19;100254.94;;;21.48;72.60
61682;BME280;47577;43.610;25.010;2023-06-14T06:34:45;100256.25;;;21.65;73.46
61682;BME280;47577;43.610;25.010;2023-06-14T06:37:11;100252.47;;;21.56;72.43
61682;BME280;47577;43.610;25.010;2023-06-14T06:39:36;100260.94;;;21.63;74.53
61682;BME280;47577;43.610;25.010;2023-06-14T06:42:02;100269.75;;;21.76;72.45
61682;BME280;47577;43.610;25.010;2023-06-14T06:44:28;100263.09;;;21.80;71.78
61682;BME280;47577;43.610;25.010;2023-06-14T06:46:54;100273.28;;;21.88;71.31
61682;BME280;47577;43.610;25.010;2023-06-14T06:49:19;100262.91;;;21.93;72.51
61682;BME280;47577;43.610;25.010;2023-06-14T06:52:03;100283.22;;;21.99;71.66
61682;BME280;47577;43.610;25.010;2023-06-14T06:54:29;100272.97;;;22.02;70.70
61682;BME280;47577;43.610;25.010;2023-06-14T06:56:55;100276.53;;;22.03;70.03
61682;BME280;47577;43.610;25.010;2023-06-14T06:59:21;100275.56;;;22.04;69.69
61682;BME280;47577;43.610;25.010;2023-06-14T07:01:46;100277.88;;;22.08;71.74
61682;BME280;47577;43.610;25.010;2023-06-14T07:04:12;100270.34;;;22.12;71.50
61682;BME280;47577;43.610;25.010;2023-06-14T07:06:38;100266.34;;;22.27;71.85
61682;BME280;47577;43.610;25.010;2023-06-14T07:09:04;100269.03;;;22.39;70.48
61682;BME280;47577;43.610;25.010;2023-06-14T07:11:33;100267.72;;;22.54;71.65
61682;BME280;47577;43.610;25.010;2023-06-14T07:16:24;100264.72;;;22.78;70.50
61682;BME280;47577;43.610;25.010;2023-06-14T07:18:51;100273.22;;;22.95;70.66
61682;BME280;47577;43.610;25.010;2023-06-14T07:21:17;100267.59;;;23.08;71.21
61682;BME280;47577;43.610;25.010;2023-06-14T07:23:43;100276.53;;;23.20;67.78
61682;BME280;47577;43.610;25.010;2023-06-14T07:26:09;100268.47;;;23.39;66.63
61682;BME280;47577;43.610;25.010;2023-06-14T07:28:34;100275.47;;;23.51;66.43
61682;BME280;47577;43.610;25.010;2023-06-14T07:31:01;100277.44;;;23.40;65.35
61682;BME280;47577;43.610;25.010;2023-06-14T07:33:27;100279.56;;;23.26;67.84
61682;BME280;47577;43.610;25.010;2023-06-14T07:35:53;100281.81;;;23.00;69.82
61682;BME280;47577;43.610;25.010;2023-06-14T07:38:19;100280.41;;;23.06;68.31
61682;BME280;47577;43.610;25.010;2023-06-14T07:40:44;100279.50;;;23.16;67.37
61682;BME280;47577;43.610;25.010;2023-06-14T07:43:10;100276.72;;;23.07;66.12
61682;BME280;47577;43.610;25.010;2023-06-14T07:45:37;100282.16;;;23.07;69.92
61682;BME280;47577;43.610;25.010;2023-06-14T07:48:02;100285.19;;;23.13;67.61
61682;BME280;47577;43.610;25.010;2023-06-14T07:50:28;100275.00;;;23.06;66.13
61682;BME280;47577;43.610;25.010;2023-06-14T07:52:54;100286.59;;;23.08;67.53
61682;BME280;47577;43.610;25.010;2023-06-14T07:55:20;100284.50;;;23.21;64.41
61682;BME280;47577;43.610;25.010;2023-06-14T07:57:45;100284.81;;;23.18;66.32
61682;BME280;47577;43.610;25.010;2023-06-14T08:00:12;100287.88;;;22.82;67.49
61682;BME280;47577;43.610;25.010;2023-06-14T08:02:41;100289.97;;;22.58;67.75
61682;BME280;47577;43.610;25.010;2023-06-14T08:05:09;100291.03;;;22.45;68.98
61682;BME280;47577;43.610;25.010;2023-06-14T08:07:35;100289.50;;;22.32;69.52
61682;BME280;47577;43.610;25.010;2023-06-14T08:10:00;100284.84;;;22.22;70.39
61682;BME280;47577;43.610;25.010;2023-06-14T08:12:26;100280.28;;;22.23;70.40
61682;BME280;47577;43.610;25.010;2023-06-14T08:14:52;100291.81;;;22.36;70.37
61682;BME280;47577;43.610;25.010;2023-06-14T08:17:19;100283.69;;;22.57;69.08
61682;BME280;47577;43.610;25.010;2023-06-14T08:19:45;100294.00;;;22.85;68.55
61682;BME280;47577;43.610;25.010;2023-06-14T08:22:11;100298.53;;;23.05;67.15
61682;BME280;47577;43.610;25.010;2023-06-14T08:24:37;100307.38;;;23.28;66.54
61682;BME280;47577;43.610;25.010;2023-06-14T08:27:03;100298.63;;;23.15;66.38
61682;BME280;47577;43.610;25.010;2023-06-14T08:29:29;100304.72;;;23.07;67.09
61682;BME280;47577;43.610;25.010;2023-06-14T08:31:57;100304.81;;;23.06;66.84
61682;BME280;47577;43.610;25.010;2023-06-14T08:34:23;100311.50;;;23.01;67.44
61682;BME280;47577;43.610;25.010;2023-06-14T08:36:51;100311.34;;;23.03;67.66
61682;BME280;47577;43.610;25.010;2023-06-14T08:39:17;100298.84;;;22.81;67.97
61682;BME280;47577;43.610;25.010;2023-06-14T08:41:46;100315.31;;;22.68;68.87
61682;BME280;47577;43.610;25.010;2023-06-14T08:44:12;100303.88;;;22.64;68.90
61682;BME280;47577;43.610;25.010;2023-06-14T08:46:38;100313.44;;;22.69;69.83
61682;BME280;47577;43.610;25.010;2023-06-14T08:49:04;100315.09;;;22.81;68.67
61682;BME280;47577;43.610;25.010;2023-06-14T08:51:35;100308.09;;;22.57;69.90
61682;BME280;47577;43.610;25.010;2023-06-14T08:54:02;100324.28;;;22.69;68.84
61682;BME280;47577;43.610;25.010;2023-06-14T08:56:30;100314.66;;;22.55;70.25
61682;BME280;47577;43.610;25.010;2023-06-14T08:58:57;100316.78;;;22.82;69.31
61682;BME280;47577;43.610;25.010;2023-06-14T09:01:25;100308.84;;;22.90;68.22
61682;BME280;47577;43.610;25.010;2023-06-14T09:03:52;100312.50;;;23.00;68.03
61682;BME280;47577;43.610;25.010;2023-06-14T09:06:20;100323.69;;;23.07;66.62
61682;BME280;47577;43.610;25.010;2023-06-14T09:08:48;100325.28;;;23.10;68.13
61682;BME280;47577;43.610;25.010;2023-06-14T09:11:16;100326.72;;;23.45;65.59
61682;BME280;47577;43.610;25.010;2023-06-14T09:13:44;100320.94;;;23.28;66.75
61682;BME280;47577;43.610;25.010;2023-06-14T09:16:10;100307.38;;;23.69;64.95
61682;BME280;47577;43.610;25.010;2023-06-14T09:18:37;100312.91;;;24.18;63.66
61682;BME280;47577;43.610;25.010;2023-06-14T09:21:07;100306.22;;;24.22;62.18
61682;BME280;47577;43.610;25.010;2023-06-14T09:23:39;100310.91;;;24.30;62.85
61682;BME280;47577;43.610;25.010;2023-06-14T09:26:12;100318.38;;;24.57;60.06
61682;BME280;47577;43.610;25.010;2023-06-14T09:28:49;100304.78;;;24.57;58.87
61682;BME280;47577;43.610;25.010;2023-06-14T09:31:17;100307.47;;;24.47;60.29
61682;BME280;47577;43.610;25.010;2023-06-14T09:33:50;100298.19;;;24.59;62.20
61682;BME280;47577;43.610;25.010;2023-06-14T09:36:22;100299.03;;;24.50;60.69
61682;BME280;47577;43.610;25.010;2023-06-14T09:39:06;100299.19;;;24.19;60.85
61682;BME280;47577;43.610;25.010;2023-06-14T09:41:38;100294.03;;;24.16;62.16
61682;BME280;47577;43.610;25.010;2023-06-14T09:44:06;100302.31;;;24.54;60.13
61682;BME280;47577;43.610;25.010;2023-06-14T09:46:32;100297.59;;;24.75;59.63
61682;BME280;47577;43.610;25.010;2023-06-14T09:48:58;100297.19;;;24.70;60.18
61682;BME280;47577;43.610;25.010;2023-06-14T09:51:25;100292.72;;;24.89;58.36
61682;BME280;47577;43.610;25.010;2023-06-14T09:53:52;100289.63;;;25.11;58.99
61682;BME280;47577;43.610;25.010;2023-06-14T09:56:44;100292.31;;;25.59;57.53
61682;BME280;47577;43.610;25.010;2023-06-14T09:59:12;100298.75;;;25.58;56.74
61682;BME280;47577;43.610;25.010;2023-06-14T10:01:44;100298.88;;;25.66;57.35
61682;BME280;47577;43.610;25.010;2023-06-14T10:04:13;100299.25;;;25.71;55.00
61682;BME280;47577;43.610;25.010;2023-06-14T10:06:43;100286.66;;;25.70;55.91
61682;BME280;47577;43.610;25.010;2023-06-14T10:09:09;100294.31;;;25.29;56.53
61682;BME280;47577;43.610;25.010;2023-06-14T10:11:36;100289.75;;;25.19;55.76
61682;BME280;47577;43.610;25.010;2023-06-14T10:14:04;100290.31;;;25.13;58.33
61682;BME280;47577;43.610;25.010;2023-06-14T10:16:33;100287.94;;;25.00;59.70
61682;BME280;47577;43.610;25.010;2023-06-14T10:19:06;100293.03;;;24.66;60.32
61682;BME280;47577;43.610;25.010;2023-06-14T10:22:00;100295.91;;;24.35;62.38
61682;BME280;47577;43.610;25.010;2023-06-14T10:24:40;100288.59;;;24.26;61.95
61682;BME280;47577;43.610;25.010;2023-06-14T10:27:07;100282.88;;;24.49;63.36
61682;BME280;47577;43.610;25.010;2023-06-14T10:32:27;100272.41;;;24.54;61.47
61682;BME280;47577;43.610;25.010;2023-06-14T10:35:06;100292.34;;;24.64;60.46
61682;BME280;47577;43.610;25.010;2023-06-14T10:37:34;100274.56;;;24.50;61.93
61682;BME280;47577;43.610;25.010;2023-06-14T10:40:01;100277.28;;;24.50;59.68
61682;BME280;47577;43.610;25.010;2023-06-14T10:42:33;100275.00;;;23.87;61.97
61682;BME280;47577;43.610;25.010;2023-06-14T10:45:00;100275.16;;;23.85;61.75
61682;BME280;47577;43.610;25.010;2023-06-14T10:47:27;100273.75;;;24.01;61.37
61682;BME280;47577;43.610;25.010;2023-06-14T10:49:54;100275.31;;;24.23;61.34
61682;BME280;47577;43.610;25.010;2023-06-14T10:52:23;100270.69;;;24.82;59.93
61682;BME280;47577;43.610;25.010;2023-06-14T10:55:16;100275.38;;;25.37;56.62
61682;BME280;47577;43.610;25.010;2023-06-14T10:57:50;100268.66;;;25.59;56.09
61682;BME280;47577;43.610;25.010;2023-06-14T11:00:18;100258.50;;;25.79;54.05
61682;BME280;47577;43.610;25.010;2023-06-14T11:03:14;100258.53;;;26.15;52.99
61682;BME280;47577;43.610;25.010;2023-06-14T11:10:59;100249.75;;;27.18;50.83
61682;BME280;47577;43.610;25.010;2023-06-14T11:13:26;100248.81;;;27.35;50.77
61682;BME280;47577;43.610;25.010;2023-06-14T11:15:52;100246.47;;;27.49;49.67
61682;BME280;47577;43.610;25.010;2023-06-14T11:18:23;100251.19;;;27.89;48.98
61682;BME280;47577;43.610;25.010;2023-06-14T11:20:54;100234.88;;;27.63;47.84
61682;BME280;47577;43.610;25.010;2023-06-14T11:23:21;100241.22;;;27.56;49.27
61682;BME280;47577;43.610;25.010;2023-06-14T11:25:51;100241.50;;;27.44;50.73
61682;BME280;47577;43.610;25.010;2023-06-14T11:28:17;100235.28;;;27.77;49.22
61682;BME280;47577;43.610;25.010;2023-06-14T11:30:45;100242.06;;;27.64;47.34
61682;BME280;47577;43.610;25.010;2023-06-14T11:33:16;100243.38;;;27.95;47.75
61682;BME280;47577;43.610;25.010;2023-06-14T11:35:43;100234.00;;;28.22;46.43
61682;BME280;47577;43.610;25.010;2023-06-14T11:38:10;100220.84;;;28.17;45.43
61682;BME280;47577;43.610;25.010;2023-06-14T11:40:38;100230.75;;;28.35;45.45
61682;BME280;47577;43.610;25.010;2023-06-14T11:43:04;100227.69;;;27.46;46.79
61682;BME280;47577;43.610;25.010;2023-06-14T11:45:30;100221.97;;;27.73;49.25
61682;BME280;47577;43.610;25.010;2023-06-14T11:47:58;100220.84;;;28.17;47.98
61682;BME280;47577;43.610;25.010;2023-06-14T11:50:26;100225.13;;;28.36;46.02
61682;BME280;47577;43.610;25.010;2023-06-14T11:52:59;100224.41;;;28.59;44.95
61682;BME280;47577;43.610;25.010;2023-06-14T11:55:35;100217.22;;;28.17;45.65
61682;BME280;47577;43.610;25.010;2023-06-14T11:58:01;100215.00;;;28.70;45.19
61682;BME280;47577;43.610;25.010;2023-06-14T12:00:28;100209.28;;;28.88;43.89
61682;BME280;47577;43.610;25.010;2023-06-14T12:02:55;100209.34;;;28.71;44.35
61682;BME280;47577;43.610;25.010;2023-06-14T12:05:24;100210.06;;;28.40;43.65
61682;BME280;47577;43.610;25.010;2023-06-14T12:07:58;100201.19;;;28.38;44.32
61682;BME280;47577;43.610;25.010;2023-06-14T12:10:25;100192.13;;;28.46;43.81
61682;BME280;47577;43.610;25.010;2023-06-14T12:12:51;100201.19;;;28.22;44.38
61682;BME280;47577;43.610;25.010;2023-06-14T12:15:16;100192.47;;;28.02;44.40
61682;BME280;47577;43.610;25.010;2023-06-14T12:17:42;100208.00;;;28.59;44.01
61682;BME280;47577;43.610;25.010;2023-06-14T12:20:10;100196.00;;;28.76;43.29
61682;BME280;47577;43.610;25.010;2023-06-14T12:22:37;100192.34;;;28.92;42.89
61682;BME280;47577;43.610;25.010;2023-06-14T12:25:04;100188.84;;;29.23;40.44
61682;BME280;47577;43.610;25.010;2023-06-14T12:27:31;100187.00;;;29.47;40.55
61682;BME280;47577;43.610;25.010;2023-06-14T12:30:01;100190.59;;;29.70;40.73
61682;BME280;47577;43.610;25.010;2023-06-14T12:32:28;100190.03;;;29.29;41.43
61682;BME280;47577;43.610;25.010;2023-06-14T12:34:55;100184.81;;;29.42;41.92
61682;BME280;47577;43.610;25.010;2023-06-14T12:37:20;100177.06;;;29.46;40.75
61682;BME280;47577;43.610;25.010;2023-06-14T12:39:46;100173.19;;;29.63;42.74
61682;BME280;47577;43.610;25.010;2023-06-14T12:42:11;100163.63;;;29.90;40.43
61682;BME280;47577;43.610;25.010;2023-06-14T12:44:39;100166.59;;;30.04;40.25
61682;BME280;47577;43.610;25.010;2023-06-14T12:47:07;100166.47;;;29.97;41.82
61682;BME280;47577;43.610;25.010;2023-06-14T12:49:33;100160.47;;;29.70;41.59
61682;BME280;47577;43.610;25.010;2023-06-14T12:51:58;100155.53;;;29.66;41.29
61682;BME280;47577;43.610;25.010;2023-06-14T12:54:24;100151.19;;;29.57;40.92
61682;BME280;47577;43.610;25.010;2023-06-14T12:56:51;100148.78;;;29.77;40.49
61682;BME280;47577;43.610;25.010;2023-06-14T12:59:18;100152.41;;;30.00;40.59
61682;BME280;47577;43.610;25.010;2023-06-14T13:01:44;100146.81;;;29.94;41.72
61682;BME280;47577;43.610;25.010;2023-06-14T13:04:19;100138.38;;;29.72;39.66
61682;BME280;47577;43.610;25.010;2023-06-14T13:06:45;100145.22;;;29.53;40.84
61682;BME280;47577;43.610;25.010;2023-06-14T13:09:10;100151.47;;;29.39;42.20
61682;BME280;47577;43.610;25.010;2023-06-14T13:11:36;100135.09;;;29.30;41.94
61682;BME280;47577;43.610;25.010;2023-06-14T13:14:02;100135.91;;;28.91;45.18